Dumas, AR (71639)

1:15 AM CST on February 22, 2017 (GMT -0600)
McGehee-Wolfe Dr | | Change Station

Elev 171 ft 33.64 °N, 91.40 °W | Updated 20 seconds ago

Mostly Cloudy
Mostly Cloudy
56.3 °F
Feels Like 56.3 °F
N
0.0
Wind Variable Wind from SE

Today
High -- | Low -- °F
--% Chance of Precip.
Yesterday
High -- | Low -- °F
Precip. -- in
Pressure 29.87 in
Visibility 10.0 miles
Clouds Overcast 800 ft
Dew Point 56 °F
Humidity 98%
Rainfall 0.00 in
Snow Depth Not available.
6:42 AM 5:56 PM
Waning Crescent, 19% visible
METAR KLLQ 220653Z AUTO 00000KT 10SM OVC008 14/13 A2987 RMK AO2 SLP113 T01440133
Pressure 29.87 in
Visibility 10.0 miles
Clouds Overcast 800 ft
Dew Point 56 °F
Humidity 98%
Rainfall 0.00 in
Snow Depth Not available.
6:42 AM 5:56 PM
Waning Crescent, 19% visible
METAR KLLQ 220653Z AUTO 00000KT 10SM OVC008 14/13 A2987 RMK AO2 SLP113 T01440133

Get Your Daily Forecast Email!

Thanks for signing up!

Be on the lookout for a verification email in your inbox.

You'll start receiving the daily forecast at 8 AM.

×

10-Day Weather Forecast

Almanac

Astronomy

Feb. 22, 2017 Rise Set
Actual Time
Civil Twilight
Nautical Twilight
Astronomical Twilight
Moon
Length of Visible Light
Length of Day
Tomorrow will be .
, % of the Moon is Illuminated

Today's Extremes

State Highs State Lows

Community

WunderPhotos

Upload Photos

1,962,540 photos uploaded!

WunderBlog® & News

Nearby

Air Quality

  Air Quality AQ Index Pollutant
Not available.

Snow Depth

Station Depth Elevation

Earthquake Activity

City Distance Mag. Time & Date
Minimum magnitude displayed is 2.5.

Coastal Water Temperatures

Place Temperature

Stations

Nearby Weather Stations

Station Location Temp. Windchill Dew Point Humidity Wind Precip. Elev Updated Type
                   

Watches & Warnings

There are currently no watches in effect.